sensor_id;sensor_type;location;lat;lon;timestamp;pressure;altitude;pressure_sealevel;temperature;humidity
46394;BME280;32099;53.588;10.176;2022-11-21T00:00:25;100157.00;;;-0.24;78.10
46394;BME280;32099;53.588;10.176;2022-11-21T00:02:51;100165.16;;;-0.25;77.89
46394;BME280;32099;53.588;10.176;2022-11-21T00:05:17;100162.47;;;-0.25;78.18
46394;BME280;32099;53.588;10.176;2022-11-21T00:07:42;100153.59;;;-0.26;78.09
46394;BME280;32099;53.588;10.176;2022-11-21T00:10:09;100151.91;;;-0.27;78.34
46394;BME280;32099;53.588;10.176;2022-11-21T00:12:35;100157.25;;;-0.27;78.13
46394;BME280;32099;53.588;10.176;2022-11-21T00:15:00;100150.91;;;-0.26;77.89
46394;BME280;32099;53.588;10.176;2022-11-21T00:17:25;100148.63;;;-0.30;77.89
46394;BME280;32099;53.588;10.176;2022-11-21T00:19:51;100144.84;;;-0.28;78.28
46394;BME280;32099;53.588;10.176;2022-11-21T00:22:16;100152.00;;;-0.28;77.95
46394;BME280;32099;53.588;10.176;2022-11-21T00:24:41;100145.94;;;-0.30;78.30
46394;BME280;32099;53.588;10.176;2022-11-21T00:27:07;100146.06;;;-0.32;78.03
46394;BME280;32099;53.588;10.176;2022-11-21T00:29:32;100144.63;;;-0.36;77.83
46394;BME280;32099;53.588;10.176;2022-11-21T00:31:57;100145.59;;;-0.37;77.90
46394;BME280;32099;53.588;10.176;2022-11-21T00:34:22;100140.34;;;-0.39;78.11
46394;BME280;32099;53.588;10.176;2022-11-21T00:36:48;100141.22;;;-0.38;78.02
46394;BME280;32099;53.588;10.176;2022-11-21T00:39:13;100139.53;;;-0.39;78.16
46394;BME280;32099;53.588;10.176;2022-11-21T00:41:38;100136.84;;;-0.39;78.26
46394;BME280;32099;53.588;10.176;2022-11-21T00:44:04;100130.38;;;-0.37;78.08
46394;BME280;32099;53.588;10.176;2022-11-21T00:46:29;100127.69;;;-0.37;78.16
46394;BME280;32099;53.588;10.176;2022-11-21T00:48:55;100123.44;;;-0.39;78.01
46394;BME280;32099;53.588;10.176;2022-11-21T00:51:20;100118.22;;;-0.41;77.92
46394;BME280;32099;53.588;10.176;2022-11-21T00:53:45;100112.88;;;-0.41;77.46
46394;BME280;32099;53.588;10.176;2022-11-21T00:56:11;100105.91;;;-0.43;77.22
46394;BME280;32099;53.588;10.176;2022-11-21T00:58:36;100113.34;;;-0.47;77.57
46394;BME280;32099;53.588;10.176;2022-11-21T01:01:06;100110.91;;;-0.50;78.02
46394;BME280;32099;53.588;10.176;2022-11-21T01:03:34;100113.88;;;-0.53;78.10
46394;BME280;32099;53.588;10.176;2022-11-21T01:06:04;100114.13;;;-0.56;77.80
46394;BME280;32099;53.588;10.176;2022-11-21T01:08:34;100111.59;;;-0.58;77.95
46394;BME280;32099;53.588;10.176;2022-11-21T01:11:05;100118.75;;;-0.58;77.80
46394;BME280;32099;53.588;10.176;2022-11-21T01:13:33;100110.72;;;-0.58;77.11
46394;BME280;32099;53.588;10.176;2022-11-21T01:16:05;100116.22;;;-0.60;77.17
46394;BME280;32099;53.588;10.176;2022-11-21T01:18:34;100114.88;;;-0.66;77.31
46394;BME280;32099;53.588;10.176;2022-11-21T01:21:01;100107.94;;;-0.68;77.69
46394;BME280;32099;53.588;10.176;2022-11-21T01:23:27;100117.06;;;-0.71;77.64
46394;BME280;32099;53.588;10.176;2022-11-21T01:25:53;100117.31;;;-0.74;77.79
46394;BME280;32099;53.588;10.176;2022-11-21T01:28:18;100110.41;;;-0.76;77.82
46394;BME280;32099;53.588;10.176;2022-11-21T01:30:44;100107.84;;;-0.78;77.89
46394;BME280;32099;53.588;10.176;2022-11-21T01:33:09;100108.81;;;-0.79;78.02
46394;BME280;32099;53.588;10.176;2022-11-21T01:35:34;100111.66;;;-0.81;78.02
46394;BME280;32099;53.588;10.176;2022-11-21T01:37:59;100120.66;;;-0.82;77.96
46394;BME280;32099;53.588;10.176;2022-11-21T01:40:25;100117.25;;;-0.84;77.89
46394;BME280;32099;53.588;10.176;2022-11-21T01:42:54;100125.28;;;-0.84;78.13
46394;BME280;32099;53.588;10.176;2022-11-21T01:48:20;100130.13;;;-0.89;78.09
46394;BME280;32099;53.588;10.176;2022-11-21T01:50:52;100123.22;;;-0.91;78.76
46394;BME280;32099;53.588;10.176;2022-11-21T01:53:19;100128.69;;;-0.93;78.90
46394;BME280;32099;53.588;10.176;2022-11-21T01:55:44;100134.75;;;-0.91;78.47
46394;BME280;32099;53.588;10.176;2022-11-21T01:58:10;100134.50;;;-0.88;77.94
46394;BME280;32099;53.588;10.176;2022-11-21T02:00:37;100131.72;;;-0.86;78.62
46394;BME280;32099;53.588;10.176;2022-11-21T02:03:05;100127.22;;;-0.86;78.48
46394;BME280;32099;53.588;10.176;2022-11-21T02:05:36;100130.03;;;-0.87;78.25
46394;BME280;32099;53.588;10.176;2022-11-21T02:08:12;100128.19;;;-0.87;78.28
46394;BME280;32099;53.588;10.176;2022-11-21T02:10:44;100129.06;;;-0.86;78.51
46394;BME280;32099;53.588;10.176;2022-11-21T02:13:18;100135.09;;;-0.84;78.04
46394;BME280;32099;53.588;10.176;2022-11-21T02:15:46;100138.53;;;-0.82;77.89
46394;BME280;32099;53.588;10.176;2022-11-21T02:18:11;100135.09;;;-0.84;78.63
46394;BME280;32099;53.588;10.176;2022-11-21T02:20:37;100137.69;;;-0.83;78.55
46394;BME280;32099;53.588;10.176;2022-11-21T02:23:10;100135.84;;;-0.82;78.19
46394;BME280;32099;53.588;10.176;2022-11-21T02:26:18;100134.03;;;-0.82;77.90
46394;BME280;32099;53.588;10.176;2022-11-21T02:28:43;100130.63;;;-0.84;78.55
46394;BME280;32099;53.588;10.176;2022-11-21T02:31:09;100125.00;;;-0.92;78.14
46394;BME280;32099;53.588;10.176;2022-11-21T02:33:34;100122.97;;;-0.88;78.12
46394;BME280;32099;53.588;10.176;2022-11-21T02:36:00;100130.03;;;-0.87;78.27
46394;BME280;32099;53.588;10.176;2022-11-21T02:38:31;100115.66;;;-0.86;79.11
46394;BME280;32099;53.588;10.176;2022-11-21T02:41:04;100127.06;;;-0.84;78.87
46394;BME280;32099;53.588;10.176;2022-11-21T02:43:40;100127.94;;;-0.84;78.15
46394;BME280;32099;53.588;10.176;2022-11-21T02:46:08;100127.34;;;-0.87;78.74
46394;BME280;32099;53.588;10.176;2022-11-21T02:48:35;100122.09;;;-0.89;78.39
46394;BME280;32099;53.588;10.176;2022-11-21T02:51:01;100133.69;;;-0.88;77.98
46394;BME280;32099;53.588;10.176;2022-11-21T02:53:26;100120.66;;;-0.93;78.75
46394;BME280;32099;53.588;10.176;2022-11-21T02:55:52;100119.81;;;-0.94;78.66
46394;BME280;32099;53.588;10.176;2022-11-21T02:58:17;100120.78;;;-0.95;78.69
46394;BME280;32099;53.588;10.176;2022-11-21T03:00:43;100117.50;;;-0.98;78.87
46394;BME280;32099;53.588;10.176;2022-11-21T03:03:09;100110.44;;;-0.99;78.22
46394;BME280;32099;53.588;10.176;2022-11-21T03:05:34;100112.28;;;-1.00;78.69
46394;BME280;32099;53.588;10.176;2022-11-21T03:07:59;100115.19;;;-1.03;78.55
46394;BME280;32099;53.588;10.176;2022-11-21T03:10:25;100111.91;;;-1.06;78.10
46394;BME280;32099;53.588;10.176;2022-11-21T03:12:50;100102.66;;;-1.14;78.92
46394;BME280;32099;53.588;10.176;2022-11-21T03:15:24;100100.72;;;-1.12;79.04
46394;BME280;32099;53.588;10.176;2022-11-21T03:17:50;100108.00;;;-1.14;78.27
46394;BME280;32099;53.588;10.176;2022-11-21T03:20:15;100098.41;;;-1.16;78.25
46394;BME280;32099;53.588;10.176;2022-11-21T03:22:41;100093.06;;;-1.16;78.21
46394;BME280;32099;53.588;10.176;2022-11-21T03:25:06;100101.09;;;-1.16;78.54
46394;BME280;32099;53.588;10.176;2022-11-21T03:27:32;100099.38;;;-1.17;77.96
46394;BME280;32099;53.588;10.176;2022-11-21T03:29:57;100098.78;;;-1.21;77.92
46394;BME280;32099;53.588;10.176;2022-11-21T03:32:22;100087.47;;;-1.25;78.59
46394;BME280;32099;53.588;10.176;2022-11-21T03:34:47;100087.59;;;-1.26;78.72
46394;BME280;32099;53.588;10.176;2022-11-21T03:37:13;100082.25;;;-1.26;78.28
46394;BME280;32099;53.588;10.176;2022-11-21T03:39:38;100090.25;;;-1.26;79.00
46394;BME280;32099;53.588;10.176;2022-11-21T03:42:03;100093.06;;;-1.28;78.20
46394;BME280;32099;53.588;10.176;2022-11-21T03:44:28;100098.56;;;-1.29;78.35
46394;BME280;32099;53.588;10.176;2022-11-21T03:46:54;100095.97;;;-1.31;78.81
46394;BME280;32099;53.588;10.176;2022-11-21T03:49:19;100088.81;;;-1.30;79.14
46394;BME280;32099;53.588;10.176;2022-11-21T03:51:44;100090.63;;;-1.31;78.20
46394;BME280;32099;53.588;10.176;2022-11-21T03:54:10;100093.22;;;-1.29;78.68
46394;BME280;32099;53.588;10.176;2022-11-21T03:56:35;100096.25;;;-1.34;78.78
46394;BME280;32099;53.588;10.176;2022-11-21T03:59:03;100094.41;;;-1.33;78.88
46394;BME280;32099;53.588;10.176;2022-11-21T04:01:29;100097.09;;;-1.33;78.64
46394;BME280;32099;53.588;10.176;2022-11-21T04:03:54;100099.03;;;-1.35;78.32
46394;BME280;32099;53.588;10.176;2022-11-21T04:06:20;100097.47;;;-1.38;78.50
46394;BME280;32099;53.588;10.176;2022-11-21T04:08:46;100099.41;;;-1.40;78.95
46394;BME280;32099;53.588;10.176;2022-11-21T04:11:12;100103.91;;;-1.41;78.97
46394;BME280;32099;53.588;10.176;2022-11-21T04:13:37;100102.81;;;-1.38;78.93
46394;BME280;32099;53.588;10.176;2022-11-21T04:16:03;100101.97;;;-1.38;79.44
46394;BME280;32099;53.588;10.176;2022-11-21T04:18:29;100108.16;;;-1.27;80.03
46394;BME280;32099;53.588;10.176;2022-11-21T04:20:58;100111.19;;;-1.20;79.43
46394;BME280;32099;53.588;10.176;2022-11-21T04:23:24;100113.38;;;-1.14;79.84
46394;BME280;32099;53.588;10.176;2022-11-21T04:25:50;100115.66;;;-1.09;79.78
46394;BME280;32099;53.588;10.176;2022-11-21T04:28:16;100115.19;;;-1.03;80.42
46394;BME280;32099;53.588;10.176;2022-11-21T04:30:41;100110.19;;;-0.96;79.79
46394;BME280;32099;53.588;10.176;2022-11-21T04:33:07;100114.44;;;-0.94;79.89
46394;BME280;32099;53.588;10.176;2022-11-21T04:35:32;100116.88;;;-0.90;80.48
46394;BME280;32099;53.588;10.176;2022-11-21T04:37:57;100119.19;;;-0.86;80.64
46394;BME280;32099;53.588;10.176;2022-11-21T04:40:23;100124.28;;;-0.83;80.06
46394;BME280;32099;53.588;10.176;2022-11-21T04:42:48;100111.50;;;-0.79;80.34
46394;BME280;32099;53.588;10.176;2022-11-21T04:45:14;100117.59;;;-0.77;79.98
46394;BME280;32099;53.588;10.176;2022-11-21T04:47:41;100118.31;;;-0.75;80.41
46394;BME280;32099;53.588;10.176;2022-11-21T04:50:09;100115.50;;;-0.73;80.10
46394;BME280;32099;53.588;10.176;2022-11-21T04:52:35;100118.78;;;-0.70;79.76
46394;BME280;32099;53.588;10.176;2022-11-21T04:55:01;100128.28;;;-0.66;79.91
46394;BME280;32099;53.588;10.176;2022-11-21T04:57:27;100121.22;;;-0.67;80.48
46394;BME280;32099;53.588;10.176;2022-11-21T04:59:53;100127.31;;;-0.65;80.29
46394;BME280;32099;53.588;10.176;2022-11-21T05:02:19;100125.31;;;-0.63;79.97
46394;BME280;32099;53.588;10.176;2022-11-21T05:04:44;100119.72;;;-0.59;80.40
46394;BME280;32099;53.588;10.176;2022-11-21T05:07:09;100122.16;;;-0.56;79.73
46394;BME280;32099;53.588;10.176;2022-11-21T05:09:34;100127.28;;;-0.53;80.23
46394;BME280;32099;53.588;10.176;2022-11-21T05:12:00;100121.91;;;-0.53;79.93
46394;BME280;32099;53.588;10.176;2022-11-21T05:14:43;100116.81;;;-0.56;80.10
46394;BME280;32099;53.588;10.176;2022-11-21T05:17:09;100123.88;;;-0.55;79.63
46394;BME280;32099;53.588;10.176;2022-11-21T05:19:34;100127.28;;;-0.53;79.97
46394;BME280;32099;53.588;10.176;2022-11-21T05:21:59;100127.00;;;-0.50;80.20
46394;BME280;32099;53.588;10.176;2022-11-21T05:24:24;100123.22;;;-0.48;80.04
46394;BME280;32099;53.588;10.176;2022-11-21T05:26:50;100122.25;;;-0.47;79.35
46394;BME280;32099;53.588;10.176;2022-11-21T05:29:15;100123.22;;;-0.48;79.88
46394;BME280;32099;53.588;10.176;2022-11-21T05:31:40;100128.59;;;-0.48;79.99
46394;BME280;32099;53.588;10.176;2022-11-21T05:34:05;100131.38;;;-0.49;80.07
46394;BME280;32099;53.588;10.176;2022-11-21T05:36:31;100125.28;;;-0.51;79.96
46394;BME280;32099;53.588;10.176;2022-11-21T05:38:56;100135.16;;;-0.52;79.90
46394;BME280;32099;53.588;10.176;2022-11-21T05:41:21;100125.44;;;-0.53;79.40
46394;BME280;32099;53.588;10.176;2022-11-21T05:43:47;100115.59;;;-0.52;79.70
46394;BME280;32099;53.588;10.176;2022-11-21T05:46:20;100127.97;;;-0.51;79.91
46394;BME280;32099;53.588;10.176;2022-11-21T05:48:47;100114.84;;;-0.54;79.83
46394;BME280;32099;53.588;10.176;2022-11-21T05:51:14;100114.00;;;-0.55;80.20
46394;BME280;32099;53.588;10.176;2022-11-21T05:53:40;100117.53;;;-0.54;80.01
46394;BME280;32099;53.588;10.176;2022-11-21T05:56:07;100120.22;;;-0.54;79.59
46394;BME280;32099;53.588;10.176;2022-11-21T05:58:34;100112.28;;;-0.56;80.05
46394;BME280;32099;53.588;10.176;2022-11-21T06:01:00;100119.22;;;-0.53;79.84
46394;BME280;32099;53.588;10.176;2022-11-21T06:03:26;100117.41;;;-0.53;79.91
46394;BME280;32099;53.588;10.176;2022-11-21T06:05:59;100127.03;;;-0.62;79.29
46394;BME280;32099;53.588;10.176;2022-11-21T06:08:30;100123.03;;;-0.67;79.75
46394;BME280;32099;53.588;10.176;2022-11-21T06:10:57;100122.06;;;-0.66;79.49
46394;BME280;32099;53.588;10.176;2022-11-21T06:13:23;100122.19;;;-0.68;80.20
46394;BME280;32099;53.588;10.176;2022-11-21T06:18:28;100123.69;;;-0.75;80.29
46394;BME280;32099;53.588;10.176;2022-11-21T06:21:03;100116.47;;;-0.74;80.42
46394;BME280;32099;53.588;10.176;2022-11-21T06:23:31;100115.38;;;-0.72;80.12
46394;BME280;32099;53.588;10.176;2022-11-21T06:25:57;100110.75;;;-0.70;79.90
46394;BME280;32099;53.588;10.176;2022-11-21T06:28:24;100116.69;;;-0.66;79.76
46394;BME280;32099;53.588;10.176;2022-11-21T06:30:50;100120.25;;;-0.66;80.48
46394;BME280;32099;53.588;10.176;2022-11-21T06:33:16;100113.28;;;-0.68;80.56
46394;BME280;32099;53.588;10.176;2022-11-21T06:35:42;100116.97;;;-0.69;79.83
46394;BME280;32099;53.588;10.176;2022-11-21T06:38:07;100120.25;;;-0.66;80.57
46394;BME280;32099;53.588;10.176;2022-11-21T06:40:32;100110.38;;;-0.65;80.25
46394;BME280;32099;53.588;10.176;2022-11-21T06:42:58;100120.09;;;-0.64;80.49
46394;BME280;32099;53.588;10.176;2022-11-21T06:45:23;100126.34;;;-0.64;80.29
46394;BME280;32099;53.588;10.176;2022-11-21T06:47:48;100120.69;;;-0.60;80.48
46394;BME280;32099;53.588;10.176;2022-11-21T06:50:14;100116.66;;;-0.55;80.71
46394;BME280;32099;53.588;10.176;2022-11-21T06:52:39;100120.81;;;-0.51;80.36
46394;BME280;32099;53.588;10.176;2022-11-21T06:55:05;100114.47;;;-0.50;80.55
46394;BME280;32099;53.588;10.176;2022-11-21T06:57:31;100117.75;;;-0.46;80.38
46394;BME280;32099;53.588;10.176;2022-11-21T06:59:56;100121.97;;;-0.43;79.95
46394;BME280;32099;53.588;10.176;2022-11-21T07:02:22;100124.81;;;-0.45;79.91
46394;BME280;32099;53.588;10.176;2022-11-21T07:04:47;100132.09;;;-0.47;79.76
46394;BME280;32099;53.588;10.176;2022-11-21T07:07:12;100127.47;;;-0.45;80.05
46394;BME280;32099;53.588;10.176;2022-11-21T07:09:37;100119.31;;;-0.43;80.06
46394;BME280;32099;53.588;10.176;2022-11-21T07:12:03;100127.47;;;-0.45;79.84
46394;BME280;32099;53.588;10.176;2022-11-21T07:14:47;100123.09;;;-0.46;80.46
46394;BME280;32099;53.588;10.176;2022-11-21T07:17:12;100135.53;;;-0.45;80.01
46394;BME280;32099;53.588;10.176;2022-11-21T07:19:38;100128.94;;;-0.41;79.68
46394;BME280;32099;53.588;10.176;2022-11-21T07:22:03;100123.44;;;-0.39;80.15
46394;BME280;32099;53.588;10.176;2022-11-21T07:24:29;100121.97;;;-0.43;80.06
46394;BME280;32099;53.588;10.176;2022-11-21T07:26:54;100114.91;;;-0.44;80.34
46394;BME280;32099;53.588;10.176;2022-11-21T07:29:19;100122.25;;;-0.47;79.66
46394;BME280;32099;53.588;10.176;2022-11-21T07:31:44;100119.81;;;-0.50;79.68
46394;BME280;32099;53.588;10.176;2022-11-21T07:34:10;100120.41;;;-0.46;79.81
46394;BME280;32099;53.588;10.176;2022-11-21T07:36:35;100118.47;;;-0.44;79.70
46394;BME280;32099;53.588;10.176;2022-11-21T07:39:00;100123.69;;;-0.42;79.99
46394;BME280;32099;53.588;10.176;2022-11-21T07:41:26;100125.38;;;-0.41;79.50
46394;BME280;32099;53.588;10.176;2022-11-21T07:43:52;100119.94;;;-0.51;79.12
46394;BME280;32099;53.588;10.176;2022-11-21T07:46:19;100127.38;;;-0.55;79.37
46394;BME280;32099;53.588;10.176;2022-11-21T07:48:45;100130.78;;;-0.53;79.46
46394;BME280;32099;53.588;10.176;2022-11-21T07:51:10;100127.97;;;-0.51;79.17
46394;BME280;32099;53.588;10.176;2022-11-21T07:53:35;100126.88;;;-0.49;79.35
46394;BME280;32099;53.588;10.176;2022-11-21T07:56:01;100123.47;;;-0.51;79.39
46394;BME280;32099;53.588;10.176;2022-11-21T07:58:26;100128.84;;;-0.51;79.33
46394;BME280;32099;53.588;10.176;2022-11-21T08:00:52;100123.63;;;-0.52;79.24
46394;BME280;32099;53.588;10.176;2022-11-21T08:03:17;100130.06;;;-0.55;79.21
46394;BME280;32099;53.588;10.176;2022-11-21T08:05:43;100124.09;;;-0.58;79.22
46394;BME280;32099;53.588;10.176;2022-11-21T08:08:09;100123.88;;;-0.55;79.43
46394;BME280;32099;53.588;10.176;2022-11-21T08:10:36;100129.56;;;-0.49;79.15
46394;BME280;32099;53.588;10.176;2022-11-21T08:13:03;100116.75;;;-0.45;78.67
46394;BME280;32099;53.588;10.176;2022-11-21T08:15:28;100120.41;;;-0.46;78.51
46394;BME280;32099;53.588;10.176;2022-11-21T08:17:53;100117.88;;;-0.48;78.50
46394;BME280;32099;53.588;10.176;2022-11-21T08:20:18;100119.69;;;-0.48;78.88
46394;BME280;32099;53.588;10.176;2022-11-21T08:22:44;100124.94;;;-0.47;79.00
46394;BME280;32099;53.588;10.176;2022-11-21T08:25:09;100115.19;;;-0.48;79.11
46394;BME280;32099;53.588;10.176;2022-11-21T08:27:36;100114.09;;;-0.45;79.28
46394;BME280;32099;53.588;10.176;2022-11-21T08:30:03;100112.53;;;-0.48;79.67
46394;BME280;32099;53.588;10.176;2022-11-21T08:32:30;100110.53;;;-0.45;79.62
46394;BME280;32099;53.588;10.176;2022-11-21T08:34:55;100120.03;;;-0.41;79.86
46394;BME280;32099;53.588;10.176;2022-11-21T08:37:21;100122.47;;;-0.38;78.76
46394;BME280;32099;53.588;10.176;2022-11-21T08:39:46;100123.88;;;-0.34;79.09
46394;BME280;32099;53.588;10.176;2022-11-21T08:42:11;100114.88;;;-0.33;79.02
46394;BME280;32099;53.588;10.176;2022-11-21T08:44:36;100115.59;;;-0.31;78.69
46394;BME280;32099;53.588;10.176;2022-11-21T08:47:02;100103.31;;;-0.34;78.79
46394;BME280;32099;53.588;10.176;2022-11-21T08:49:27;100113.91;;;-0.32;79.33
46394;BME280;32099;53.588;10.176;2022-11-21T08:51:53;100110.72;;;-0.26;78.73
46394;BME280;32099;53.588;10.176;2022-11-21T08:54:19;100110.94;;;-0.18;78.66
46394;BME280;32099;53.588;10.176;2022-11-21T08:56:47;100113.41;;;-0.05;78.52
46394;BME280;32099;53.588;10.176;2022-11-21T08:59:12;100114.88;;;-0.01;78.31
46394;BME280;32099;53.588;10.176;2022-11-21T09:01:37;100111.47;;;-0.03;77.74
46394;BME280;32099;53.588;10.176;2022-11-21T09:04:03;100106.34;;;-0.06;78.15
46394;BME280;32099;53.588;10.176;2022-11-21T09:06:29;100108.34;;;-0.08;78.31
46394;BME280;32099;53.588;10.176;2022-11-21T09:08:55;100109.31;;;-0.09;77.90
46394;BME280;32099;53.588;10.176;2022-11-21T09:11:20;100101.78;;;-0.15;78.02
46394;BME280;32099;53.588;10.176;2022-11-21T09:13:46;100113.13;;;-0.23;78.08
46394;BME280;32099;53.588;10.176;2022-11-21T09:16:34;100102.31;;;-0.21;78.30
46394;BME280;32099;53.588;10.176;2022-11-21T09:19:18;100104.72;;;-0.18;78.73
46394;BME280;32099;53.588;10.176;2022-11-21T09:21:45;100108.00;;;-0.14;78.57
46394;BME280;32099;53.588;10.176;2022-11-21T09:24:12;100111.13;;;-0.09;78.95
46394;BME280;32099;53.588;10.176;2022-11-21T09:26:37;100124.03;;;-0.03;78.41
46394;BME280;32099;53.588;10.176;2022-11-21T09:29:03;100130.13;;;-0.01;78.60
46394;BME280;32099;53.588;10.176;2022-11-21T09:31:28;100127.03;;;0.04;78.63
46394;BME280;32099;53.588;10.176;2022-11-21T09:33:53;100124.06;;;0.07;78.93
46394;BME280;32099;53.588;10.176;2022-11-21T09:36:18;100130.63;;;0.14;78.24
46394;BME280;32099;53.588;10.176;2022-11-21T09:38:44;100129.25;;;0.20;78.17
46394;BME280;32099;53.588;10.176;2022-11-21T09:44:16;100128.94;;;0.34;77.88
46394;BME280;32099;53.588;10.176;2022-11-21T09:47:20;100125.53;;;0.32;77.91
46394;BME280;32099;53.588;10.176;2022-11-21T09:49:52;100124.47;;;0.44;78.18
46394;BME280;32099;53.588;10.176;2022-11-21T09:52:25;100122.94;;;0.52;77.69
46394;BME280;32099;53.588;10.176;2022-11-21T09:54:58;100124.72;;;0.63;76.95
46394;BME280;32099;53.588;10.176;2022-11-21T09:57:27;100123.19;;;0.70;77.01
46394;BME280;32099;53.588;10.176;2022-11-21T09:59:53;100125.72;;;0.71;76.79
46394;BME280;32099;53.588;10.176;2022-11-21T10:02:20;100118.97;;;0.77;77.19
46394;BME280;32099;53.588;10.176;2022-11-21T10:04:47;100117.56;;;0.83;76.82
46394;BME280;32099;53.588;10.176;2022-11-21T10:07:21;100126.19;;;0.86;76.60
46394;BME280;32099;53.588;10.176;2022-11-21T10:09:58;100116.03;;;0.80;76.52
46394;BME280;32099;53.588;10.176;2022-11-21T10:12:45;100113.88;;;0.74;77.28
46394;BME280;32099;53.588;10.176;2022-11-21T10:21:02;100123.41;;;0.88;77.06
46394;BME280;32099;53.588;10.176;2022-11-21T10:29:25;100116.50;;;0.95;76.83
46394;BME280;32099;53.588;10.176;2022-11-21T10:31:58;100108.13;;;0.88;76.91
46394;BME280;32099;53.588;10.176;2022-11-21T10:34:33;100108.22;;;0.77;77.20
46394;BME280;32099;53.588;10.176;2022-11-21T10:39:55;100108.47;;;0.64;78.00
46394;BME280;32099;53.588;10.176;2022-11-21T10:42:44;100104.81;;;0.65;78.40
46394;BME280;32099;53.588;10.176;2022-11-21T10:45:17;100115.84;;;0.72;78.53
46394;BME280;32099;53.588;10.176;2022-11-21T10:47:46;100108.94;;;0.79;78.45
46394;BME280;32099;53.588;10.176;2022-11-21T10:50:24;100106.56;;;0.86;77.92
46394;BME280;32099;53.588;10.176;2022-11-21T10:56:03;100091.75;;;0.91;78.18
46394;BME280;32099;53.588;10.176;2022-11-21T10:58:33;100083.84;;;1.00;78.20
46394;BME280;32099;53.588;10.176;2022-11-21T11:01:23;100094.06;;;1.06;78.25
46394;BME280;32099;53.588;10.176;2022-11-21T11:06:37;100084.19;;;1.16;77.66
46394;BME280;32099;53.588;10.176;2022-11-21T11:09:20;100082.63;;;1.23;77.95
46394;BME280;32099;53.588;10.176;2022-11-21T11:11:52;100081.13;;;1.31;78.07
46394;BME280;32099;53.588;10.176;2022-11-21T11:14:26;100078.44;;;1.41;77.92
46394;BME280;32099;53.588;10.176;2022-11-21T11:16:55;100074.88;;;1.50;77.64
46394;BME280;32099;53.588;10.176;2022-11-21T11:19:23;100082.13;;;1.59;78.02
46394;BME280;32099;53.588;10.176;2022-11-21T11:21:52;100080.56;;;1.66;78.05
46394;BME280;32099;53.588;10.176;2022-11-21T11:24:19;100078.88;;;1.75;77.57
46394;BME280;32099;53.588;10.176;2022-11-21T11:29:21;100079.13;;;1.92;77.92
46394;BME280;32099;53.588;10.176;2022-11-21T11:34:47;100073.44;;;2.14;77.65
46394;BME280;32099;53.588;10.176;2022-11-21T11:37:33;100066.06;;;2.26;76.95
46394;BME280;32099;53.588;10.176;2022-11-21T11:45:53;100061.47;;;2.46;77.53
46394;BME280;32099;53.588;10.176;2022-11-21T11:48:39;100064.38;;;2.53;77.06
46394;BME280;32099;53.588;10.176;2022-11-21T11:51:24;100058.59;;;2.58;76.84
46394;BME280;32099;53.588;10.176;2022-11-21T11:53:57;100050.38;;;2.59;77.03
46394;BME280;32099;53.588;10.176;2022-11-21T11:56:31;100047.66;;;2.59;76.65
46394;BME280;32099;53.588;10.176;2022-11-21T11:59:06;100042.09;;;2.71;77.44
46394;BME280;32099;53.588;10.176;2022-11-21T12:01:49;100047.69;;;2.87;76.28
46394;BME280;32099;53.588;10.176;2022-11-21T12:04:23;100042.94;;;2.99;77.45
46394;BME280;32099;53.588;10.176;2022-11-21T12:06:59;100038.88;;;3.13;77.04
46394;BME280;32099;53.588;10.176;2022-11-21T12:12:15;100032.22;;;3.98;74.96
46394;BME280;32099;53.588;10.176;2022-11-21T12:23:27;99990.03;;;9.96;57.56
46394;BME280;32099;53.588;10.176;2022-11-21T12:26:09;99979.66;;;11.52;53.10
46394;BME280;32099;53.588;10.176;2022-11-21T12:31:59;99993.69;;;8.79;58.08
46394;BME280;32099;53.588;10.176;2022-11-21T12:42:47;99977.88;;;4.54;68.13
46394;BME280;32099;53.588;10.176;2022-11-21T12:45:25;99981.72;;;4.16;69.39
46394;BME280;32099;53.588;10.176;2022-11-21T12:48:01;99974.31;;;3.84;70.41
46394;BME280;32099;53.588;10.176;2022-11-21T12:54:18;99965.94;;;3.51;72.00
46394;BME280;32099;53.588;10.176;2022-11-21T12:57:10;99959.66;;;3.42;73.36
46394;BME280;32099;53.588;10.176;2022-11-21T13:05:17;99959.25;;;3.37;72.35
46394;BME280;32099;53.588;10.176;2022-11-21T13:08:09;99958.91;;;3.32;72.86
46394;BME280;32099;53.588;10.176;2022-11-21T13:10:40;99961.03;;;3.28;72.80
46394;BME280;32099;53.588;10.176;2022-11-21T13:13:19;99958.50;;;3.27;72.43
46394;BME280;32099;53.588;10.176;2022-11-21T13:15:54;99954.41;;;3.22;73.21
46394;BME280;32099;53.588;10.176;2022-11-21T13:18:30;99952.59;;;3.23;72.43
46394;BME280;32099;53.588;10.176;2022-11-21T13:21:04;99946.91;;;3.26;72.45
46394;BME280;32099;53.588;10.176;2022-11-21T13:23:36;99936.13;;;3.26;72.24
46394;BME280;32099;53.588;10.176;2022-11-21T13:28:50;99934.72;;;3.22;72.04
46394;BME280;32099;53.588;10.176;2022-11-21T13:31:31;99929.81;;;3.17;71.26
46394;BME280;32099;53.588;10.176;2022-11-21T13:33:58;99933.09;;;3.11;71.59
46394;BME280;32099;53.588;10.176;2022-11-21T13:47:01;99930.22;;;3.04;72.15
46394;BME280;32099;53.588;10.176;2022-11-21T13:52:10;99925.19;;;2.91;71.94
46394;BME280;32099;53.588;10.176;2022-11-21T13:54:54;99926.63;;;2.86;72.02
46394;BME280;32099;53.588;10.176;2022-11-21T13:57:46;99924.25;;;2.83;71.94
46394;BME280;32099;53.588;10.176;2022-11-21T14:00:40;99939.03;;;2.78;73.28
46394;BME280;32099;53.588;10.176;2022-11-21T14:03:41;99926.88;;;2.74;72.99
46394;BME280;32099;53.588;10.176;2022-11-21T14:06:40;99920.66;;;2.74;72.35
46394;BME280;32099;53.588;10.176;2022-11-21T14:11:39;99930.31;;;2.67;72.50
46394;BME280;32099;53.588;10.176;2022-11-21T14:17:18;99922.16;;;2.58;72.39
46394;BME280;32099;53.588;10.176;2022-11-21T14:19:53;99928.69;;;2.56;72.53
46394;BME280;32099;53.588;10.176;2022-11-21T14:22:23;99937.91;;;2.53;73.18
46394;BME280;32099;53.588;10.176;2022-11-21T14:24:52;99939.06;;;2.51;73.58